Time;durP1;ratioP1;P1;durP2;ratioP2;P2;SDS_P1;SDS_P2;PMS_P1;PMS_P2;Temp;Humidity;BMP_temperature;BMP_pressure;BME280_temperature;BME280_humidity;BME280_pressure;Samples;Min_cycle;Max_cycle;Signal;HPM_P1;HPM_P2
2022/01/19 00:00:49;;;;;;;8.17;7.30;;;5.30;99.90;;;;;;10467285;28;20255;-79
2022/01/19 00:05:52;;;;;;;8.83;7.67;;;5.20;99.90;;;;;;10466147;28;20247;-80
2022/01/19 00:10:54;;;;;;;10.40;8.50;;;5.10;99.90;;;;;;10483456;28;20177;-80
2022/01/19 00:15:58;;;;;;;9.30;8.40;;;5.00;99.90;;;;;;10439947;28;20205;-80
2022/01/19 00:21:15;;;;;;;8.30;7.60;;;4.90;99.90;;;;;;10473006;28;20207;-80
2022/01/19 00:26:17;;;;;;;10.63;8.93;;;4.80;99.90;;;;;;10504752;28;20668;-79
2022/01/19 00:31:20;;;;;;;12.00;9.20;;;4.60;99.90;;;;;;10486062;28;20196;-78
2022/01/19 00:36:23;;;;;;;11.03;8.37;;;4.50;99.90;;;;;;10465131;28;20315;-79
2022/01/19 00:41:25;;;;;;;10.23;9.23;;;4.40;99.90;;;;;;10499707;28;20272;-78
2022/01/19 00:46:28;;;;;;;13.10;9.80;;;4.30;99.90;;;;;;10498968;28;20283;-79
2022/01/19 00:51:31;;;;;;;11.47;10.27;;;4.20;99.90;;;;;;10482199;28;20212;-78
2022/01/19 00:56:35;;;;;;;13.13;11.07;;;4.20;99.90;;;;;;10480886;28;20232;-78
2022/01/19 01:01:38;;;;;;;11.30;10.30;;;4.10;99.90;;;;;;10479957;28;20193;-80
2022/01/19 01:06:40;;;;;;;11.93;10.70;;;4.10;99.90;;;;;;10496771;28;20209;-80
2022/01/19 01:11:57;;;;;;;14.33;10.97;;;4.00;99.90;;;;;;10479395;28;20193;-80
2022/01/19 01:17:13;;;;;;;11.97;10.67;;;3.90;99.90;;;;;;10479129;28;20640;-80
2022/01/19 01:22:15;;;;;;;14.60;12.53;;;3.90;99.90;;;;;;10479342;28;20196;-80
2022/01/19 01:27:18;;;;;;;13.93;11.07;;;3.90;99.90;;;;;;10462191;28;20242;-80
2022/01/19 01:32:21;;;;;;;12.83;11.53;;;3.90;99.90;;;;;;10479200;28;20652;-80
2022/01/19 01:37:23;;;;;;;12.87;11.57;;;3.90;99.90;;;;;;10462704;28;20247;-81
2022/01/19 01:42:26;;;;;;;14.50;11.60;;;3.90;99.90;;;;;;10463297;28;20758;-80
2022/01/19 01:47:33;;;;;;;13.70;12.37;;;3.90;99.90;;;;;;10479619;28;20223;-79
2022/01/19 01:57:58;;;;;;;15.07;11.40;;;3.90;99.90;;;;;;10463998;28;20232;-80
2022/01/19 02:03:04;;;;;;;16.63;11.20;;;3.80;99.90;;;;;;10475666;28;20204;-80
2022/01/19 02:08:16;;;;;;;13.20;11.37;;;3.80;99.90;;;;;;10480425;28;20185;-79
2022/01/19 02:24:02;;;;;;;13.60;12.20;;;3.60;99.90;;;;;;10464731;28;20205;-81
2022/01/19 02:29:14;;;;;;;13.03;11.70;;;3.60;99.90;;;;;;10464009;28;20188;-81
2022/01/19 02:50:23;;;;;;;12.57;11.37;;;4.00;99.90;;;;;;10483646;28;20189;-82
2022/01/19 02:55:28;;;;;;;14.37;12.83;;;4.00;99.90;;;;;;10496907;28;20235;-80
2022/01/19 03:11:11;;;;;;;12.80;11.60;;;4.10;99.90;;;;;;10484371;28;20196;-81
2022/01/19 03:16:14;;;;;;;13.50;12.10;;;4.00;99.90;;;;;;10484199;28;20240;-81
2022/01/19 03:21:17;;;;;;;17.13;11.03;;;4.00;99.90;;;;;;10484997;28;20242;-80
2022/01/19 03:26:20;;;;;;;12.77;11.57;;;3.90;99.90;;;;;;10467985;28;20220;-81
2022/01/19 03:31:40;;;;;;;13.67;12.13;;;3.90;99.90;;;;;;10498020;28;20189;-80
2022/01/19 03:36:43;;;;;;;12.23;10.10;;;3.90;99.90;;;;;;10482607;28;20220;-79
2022/01/19 03:41:46;;;;;;;15.30;10.90;;;3.80;99.90;;;;;;10483014;28;20201;-79
2022/01/19 03:46:56;;;;;;;15.60;12.70;;;3.80;99.90;;;;;;10482323;28;20239;-80
2022/01/19 03:52:02;;;;;;;12.73;11.50;;;3.70;99.90;;;;;;10465817;28;20247;-79
2022/01/19 03:57:08;;;;;;;12.53;11.37;;;3.60;99.90;;;;;;10482309;28;20278;-80
2022/01/19 04:02:12;;;;;;;13.60;12.20;;;3.50;99.90;;;;;;10482564;28;20276;-80
2022/01/19 04:07:15;;;;;;;13.83;12.40;;;3.40;99.90;;;;;;10481851;28;20212;-79
2022/01/19 04:12:40;;;;;;;16.73;12.50;;;3.40;99.90;;;;;;10466106;28;20209;-79
2022/01/19 04:17:49;;;;;;;14.90;13.27;;;3.40;99.90;;;;;;10464169;28;20220;-79
2022/01/19 04:22:52;;;;;;;15.70;13.50;;;3.40;99.90;;;;;;10472338;28;20640;-80
2022/01/19 04:27:56;;;;;;;15.07;13.57;;;3.40;99.90;;;;;;10493062;28;20216;-79
2022/01/19 04:33:04;;;;;;;16.60;14.20;;;3.40;99.90;;;;;;10480776;28;20226;-79
2022/01/19 04:49:11;;;;;;;14.13;11.40;;;3.40;99.90;;;;;;10463347;28;20279;-79
2022/01/19 04:54:43;;;;;;;13.33;11.83;;;3.40;99.90;;;;;;10446420;28;20217;-80
2022/01/19 05:05:32;;;;;;;17.50;14.77;;;3.30;99.90;;;;;;10460752;28;20691;-78
2022/01/19 05:15:57;;;;;;;15.07;13.47;;;3.30;99.90;;;;;;10483778;28;20212;-79
2022/01/19 05:21:00;;;;;;;17.03;15.20;;;3.20;99.90;;;;;;10485084;28;20200;-79
2022/01/19 05:26:25;;;;;;;18.73;14.67;;;3.20;99.90;;;;;;10453386;28;20216;-78
2022/01/19 05:31:29;;;;;;;19.10;16.23;;;3.10;99.90;;;;;;10484055;28;20197;-78
2022/01/19 05:36:31;;;;;;;17.30;15.40;;;3.10;99.90;;;;;;10481437;28;20297;-78
2022/01/19 05:41:56;;;;;;;17.30;15.03;;;3.10;99.90;;;;;;10451057;28;20275;-80
2022/01/19 05:47:00;;;;;;;15.93;14.23;;;3.10;99.90;;;;;;10485907;28;20303;-81
2022/01/19 05:52:02;;;;;;;18.83;15.10;;;3.00;99.90;;;;;;10491275;28;20224;-80
2022/01/19 05:57:04;;;;;;;20.13;15.17;;;3.00;99.90;;;;;;10471364;28;20224;-79
2022/01/19 06:02:12;;;;;;;16.93;14.37;;;2.90;99.90;;;;;;10476311;28;20201;-80
2022/01/19 06:07:14;;;;;;;15.80;14.10;;;2.90;99.90;;;;;;10498125;28;20770;-79
2022/01/19 06:12:37;;;;;;;17.27;14.90;;;2.80;99.90;;;;;;10466808;28;20208;-78
2022/01/19 06:17:40;;;;;;;21.43;18.40;;;2.80;99.90;;;;;;10457174;28;20250;-78
2022/01/19 06:22:48;;;;;;;26.40;21.97;;;2.80;99.90;;;;;;10468280;28;20211;-77
2022/01/19 06:27:50;;;;;;;31.63;25.33;;;2.80;99.90;;;;;;10467255;28;20219;-78
2022/01/19 06:32:54;;;;;;;29.00;24.53;;;2.80;99.90;;;;;;10484427;28;20219;-78
2022/01/19 06:37:59;;;;;;;20.40;16.07;;;2.90;99.90;;;;;;10466084;28;20220;-77
2022/01/19 06:43:19;;;;;;;19.67;17.50;;;3.10;99.90;;;;;;10484770;28;20629;-77
2022/01/19 06:48:23;;;;;;;18.40;15.10;;;3.20;99.90;;;;;;10466470;28;20196;-79
2022/01/19 06:53:26;;;;;;;16.83;14.83;;;3.30;99.90;;;;;;10466909;28;20349;-78
2022/01/19 06:58:41;;;;;;;17.67;15.70;;;3.40;99.90;;;;;;10483437;28;20219;-78
2022/01/19 07:04:06;;;;;;;19.67;14.87;;;3.50;99.90;;;;;;10484515;28;20692;-79
2022/01/19 07:09:10;;;;;;;16.13;13.17;;;3.40;99.90;;;;;;10508881;28;20197;-78
2022/01/19 07:14:18;;;;;;;20.87;14.93;;;3.40;99.90;;;;;;10473714;28;20214;-78
2022/01/19 07:19:22;;;;;;;14.93;13.40;;;3.30;99.90;;;;;;10490650;28;20216;-77
2022/01/19 07:24:26;;;;;;;15.87;14.27;;;3.20;99.90;;;;;;10474700;28;20216;-78
2022/01/19 07:29:28;;;;;;;17.13;14.73;;;3.20;99.90;;;;;;10465168;28;20197;-78
2022/01/19 07:34:34;;;;;;;16.40;14.77;;;3.10;99.90;;;;;;10473735;22;20225;-77
2022/01/19 07:39:42;;;;;;;19.13;15.37;;;3.00;99.90;;;;;;10499269;28;20197;-77
2022/01/19 07:44:44;;;;;;;16.13;14.43;;;3.00;99.90;;;;;;10498843;28;20219;-77
2022/01/19 07:50:17;;;;;;;17.83;15.60;;;3.00;99.90;;;;;;10479846;28;20668;-77
2022/01/19 07:55:32;;;;;;;16.37;14.77;;;2.90;99.90;;;;;;10498521;28;20617;-77
2022/01/19 08:00:47;;;;;;;17.40;14.80;;;2.90;99.90;;;;;;10498710;28;20245;-77
2022/01/19 08:06:13;;;;;;;15.90;14.33;;;2.90;99.90;;;;;;10500064;28;20303;-77
2022/01/19 08:11:15;;;;;;;18.47;16.27;;;3.00;99.90;;;;;;10503450;28;20192;-78
2022/01/19 08:16:22;;;;;;;18.10;16.20;;;3.00;99.90;;;;;;10488472;28;20596;-78
2022/01/19 08:21:25;;;;;;;19.33;17.33;;;3.10;99.90;;;;;;10497920;28;20262;-78
2022/01/19 08:26:34;;;;;;;18.13;16.37;;;3.20;99.90;;;;;;10503529;28;20224;-78
2022/01/19 08:31:39;;;;;;;18.63;16.60;;;3.40;99.90;;;;;;10499182;28;20555;-78
2022/01/19 08:36:46;;;;;;;19.23;17.20;;;3.50;99.90;;;;;;10498234;28;20215;-78
2022/01/19 08:41:54;;;;;;;25.00;18.87;;;3.60;99.90;;;;;;10480224;28;20250;-77
2022/01/19 08:46:56;;;;;;;19.90;17.67;;;3.80;99.90;;;;;;10480305;28;20243;-77
2022/01/19 08:52:03;;;;;;;18.50;16.70;;;3.90;99.90;;;;;;10498252;28;20227;-77
2022/01/19 08:57:11;;;;;;;18.90;16.90;;;4.00;99.90;;;;;;10496119;28;20221;-77
2022/01/19 09:02:13;;;;;;;20.13;17.57;;;4.10;99.90;;;;;;10480377;28;20206;-77
2022/01/19 09:07:18;;;;;;;20.40;18.37;;;4.20;99.90;;;;;;10495892;28;20240;-77
2022/01/19 09:12:20;;;;;;;18.40;16.60;;;4.30;99.90;;;;;;10496515;28;20196;-77
2022/01/19 09:17:23;;;;;;;24.57;18.10;;;4.40;99.90;;;;;;10497079;28;20226;-77
2022/01/19 09:22:26;;;;;;;19.80;17.70;;;4.60;99.90;;;;;;10495707;28;20227;-77
2022/01/19 09:27:29;;;;;;;19.00;16.60;;;4.60;99.90;;;;;;10496365;28;20225;-78
2022/01/19 09:32:31;;;;;;;18.63;16.60;;;4.80;99.90;;;;;;10495955;28;20201;-78
2022/01/19 09:37:35;;;;;;;20.60;18.40;;;4.90;99.90;;;;;;10495690;28;20706;-78
2022/01/19 09:42:38;;;;;;;21.20;17.23;;;5.00;99.90;;;;;;10496135;28;20653;-78
2022/01/19 09:47:41;;;;;;;18.83;16.60;;;5.10;99.90;;;;;;10495983;28;20215;-78
2022/01/19 09:52:45;;;;;;;20.03;17.93;;;5.20;99.90;;;;;;10496151;28;20219;-78
2022/01/19 09:57:47;;;;;;;17.73;16.03;;;5.30;99.90;;;;;;10494108;28;20224;-77
2022/01/19 10:03:17;;;;;;;18.90;17.00;;;5.40;99.90;;;;;;10494424;28;20231;-77
2022/01/19 10:08:29;;;;;;;18.97;15.97;;;5.40;99.90;;;;;;10494397;28;20188;-77
2022/01/19 10:19:13;;;;;;;18.43;16.60;;;5.50;99.90;;;;;;10495231;28;20307;-77
2022/01/19 10:24:16;;;;;;;18.37;16.50;;;5.60;99.90;;;;;;10493848;28;20212;-78
2022/01/19 10:29:26;;;;;;;16.93;14.90;;;5.60;99.90;;;;;;10468891;28;20215;-78
2022/01/19 10:34:28;;;;;;;16.53;14.80;;;5.70;99.90;;;;;;10479960;28;20277;-78
2022/01/19 10:39:42;;;;;;;15.90;14.20;;;5.70;99.90;;;;;;10494176;28;20594;-78
2022/01/19 10:44:46;;;;;;;16.67;14.93;;;5.70;99.90;;;;;;10503612;28;20688;-78
2022/01/19 10:49:54;;;;;;;21.13;18.93;;;5.80;99.90;;;;;;10501791;28;20271;-78
2022/01/19 10:54:58;;;;;;;18.30;15.10;;;5.90;99.90;;;;;;10501959;28;20280;-78
2022/01/19 11:00:22;;;;;;;18.50;14.83;;;5.90;99.90;;;;;;10502145;28;20614;-78
2022/01/19 11:05:45;;;;;;;16.57;14.90;;;6.00;99.90;;;;;;10501119;28;20227;-78
2022/01/19 11:10:52;;;;;;;15.53;13.93;;;6.00;99.90;;;;;;10501494;28;20220;-78
2022/01/19 11:15:55;;;;;;;14.87;13.33;;;6.10;99.90;;;;;;10502107;28;20303;-78
2022/01/19 11:21:01;;;;;;;14.50;12.97;;;6.20;99.90;;;;;;10501838;28;20668;-78
2022/01/19 11:26:07;;;;;;;15.77;14.07;;;6.20;99.90;;;;;;10501333;28;20287;-78
2022/01/19 11:31:13;;;;;;;17.87;16.07;;;6.30;99.90;;;;;;10501069;28;20200;-78
2022/01/19 11:36:24;;;;;;;17.97;15.40;;;6.40;99.90;;;;;;10500250;28;20221;-78
2022/01/19 11:41:50;;;;;;;19.00;17.00;;;6.40;99.90;;;;;;10500978;28;20574;-78
2022/01/19 11:46:54;;;;;;;18.47;16.57;;;6.50;99.90;;;;;;10499661;28;20219;-78
2022/01/19 11:51:57;;;;;;;18.00;16.10;;;6.50;99.90;;;;;;10500113;28;20227;-78
2022/01/19 11:57:13;;;;;;;21.53;17.17;;;6.60;99.90;;;;;;10498987;28;20230;-78
2022/01/19 12:02:36;;;;;;;18.90;16.47;;;6.70;99.90;;;;;;10498660;28;20223;-78
2022/01/19 12:07:40;;;;;;;23.13;17.90;;;6.70;99.90;;;;;;10495572;28;20287;-77
2022/01/19 12:12:54;;;;;;;20.53;18.57;;;6.60;99.90;;;;;;10498933;28;20212;-78
2022/01/19 12:18:07;;;;;;;18.63;16.10;;;6.70;99.90;;;;;;10498248;28;20220;-78
2022/01/19 12:23:25;;;;;;;16.47;14.60;;;6.70;99.90;;;;;;10481843;28;20199;-78
2022/01/19 12:28:48;;;;;;;17.13;15.30;;;6.70;99.90;;;;;;10498921;28;20231;-78
2022/01/19 12:34:20;;;;;;;15.67;13.27;;;6.70;99.90;;;;;;10497250;28;20212;-78
2022/01/19 12:39:36;;;;;;;15.90;13.70;;;6.70;99.90;;;;;;10495842;28;20278;-78
2022/01/19 12:44:59;;;;;;;14.43;12.93;;;6.70;99.90;;;;;;10496735;28;20453;-78
2022/01/19 12:50:31;;;;;;;13.70;12.17;;;6.70;99.90;;;;;;10497354;28;20563;-78
2022/01/19 12:55:35;;;;;;;14.70;13.20;;;6.70;99.90;;;;;;10494341;28;20220;-78
2022/01/19 13:00:39;;;;;;;14.37;12.63;;;6.70;99.90;;;;;;10495529;28;20219;-78
2022/01/19 13:05:46;;;;;;;15.97;12.60;;;6.70;99.90;;;;;;10497185;28;20228;-78
2022/01/19 13:10:51;;;;;;;15.20;13.27;;;6.90;99.90;;;;;;10470897;28;20223;-78
2022/01/19 13:15:58;;;;;;;13.83;12.47;;;7.10;99.90;;;;;;10496661;28;20208;-78
2022/01/19 13:21:03;;;;;;;11.90;10.70;;;7.20;99.90;;;;;;10494565;28;20219;-78
2022/01/19 13:26:07;;;;;;;14.00;12.60;;;7.30;99.90;;;;;;10493963;28;20212;-78
2022/01/19 13:31:12;;;;;;;13.83;12.13;;;7.40;99.90;;;;;;10496234;28;20238;-78
2022/01/19 13:36:14;;;;;;;13.90;12.00;;;7.50;99.90;;;;;;10494375;28;20244;-78
2022/01/19 13:41:16;;;;;;;13.00;11.70;;;7.60;99.90;;;;;;10498538;28;20192;-77
2022/01/19 13:46:29;;;;;;;13.20;11.90;;;7.60;99.90;;;;;;10496423;28;20216;-77
2022/01/19 13:51:33;;;;;;;12.30;11.10;;;7.60;99.90;;;;;;10494692;28;20246;-78
2022/01/19 13:56:37;;;;;;;13.53;10.60;;;7.50;99.90;;;;;;10493655;28;20593;-78
2022/01/19 14:01:48;;;;;;;13.67;11.00;;;7.40;99.90;;;;;;10493526;28;20201;-78
2022/01/19 14:06:50;;;;;;;12.47;11.17;;;7.40;99.90;;;;;;10493606;28;20684;-77
2022/01/19 14:11:59;;;;;;;11.87;9.27;;;7.50;99.90;;;;;;10491677;28;20586;-78
2022/01/19 14:17:04;;;;;;;14.63;10.10;;;7.60;99.90;;;;;;10470682;28;20676;-78
2022/01/19 14:22:12;;;;;;;10.90;9.80;;;7.60;99.90;;;;;;10491514;28;20196;-78
2022/01/19 14:27:17;;;;;;;7.30;6.60;;;7.70;99.90;;;;;;10490777;28;20216;-77
2022/01/19 14:32:22;;;;;;;7.10;6.50;;;7.70;99.90;;;;;;10492702;28;20626;-78
2022/01/19 14:37:24;;;;;;;7.07;6.37;;;7.70;99.90;;;;;;10491405;28;20220;-78
2022/01/19 14:42:38;;;;;;;7.50;6.77;;;7.70;98.20;;;;;;10493438;28;20203;-78
2022/01/19 14:47:42;;;;;;;7.73;7.00;;;7.70;98.30;;;;;;10492611;28;20614;-76
2022/01/19 14:52:44;;;;;;;9.30;8.40;;;7.70;99.80;;;;;;10490779;28;20200;-77
2022/01/19 14:57:47;;;;;;;9.90;8.20;;;7.80;97.80;;;;;;10492406;28;20315;-77
2022/01/19 15:02:57;;;;;;;9.30;8.40;;;7.70;98.10;;;;;;10493983;28;20193;-77
2022/01/19 15:08:00;;;;;;;9.70;8.70;;;7.60;99.20;;;;;;10492639;28;20645;-77
2022/01/19 15:13:04;;;;;;;8.83;7.93;;;7.70;99.40;;;;;;10493325;28;20254;-77
2022/01/19 15:18:08;;;;;;;9.70;8.30;;;7.60;99.20;;;;;;10492370;28;20227;-77
2022/01/19 15:23:10;;;;;;;13.50;9.70;;;7.60;99.60;;;;;;10491548;28;20201;-77
2022/01/19 15:28:12;;;;;;;10.10;9.20;;;7.60;99.40;;;;;;10495839;28;20221;-77
2022/01/19 15:33:15;;;;;;;10.13;9.00;;;7.60;99.90;;;;;;10500180;28;20203;-77
2022/01/19 15:38:18;;;;;;;11.00;9.73;;;7.60;99.70;;;;;;10499281;28;20232;-76
2022/01/19 15:43:20;;;;;;;10.43;9.33;;;7.60;98.80;;;;;;10499323;28;20631;-77
2022/01/19 15:48:24;;;;;;;10.67;9.63;;;7.50;98.90;;;;;;10499599;28;20200;-77
2022/01/19 15:53:27;;;;;;;11.33;9.73;;;7.50;99.00;;;;;;10499077;28;20193;-77
2022/01/19 15:58:29;;;;;;;12.40;11.10;;;7.30;98.80;;;;;;10499402;28;20244;-77
2022/01/19 16:03:33;;;;;;;13.00;11.37;;;7.30;99.10;;;;;;10498970;28;20198;-77
2022/01/19 16:08:35;;;;;;;12.57;11.00;;;7.20;99.60;;;;;;10497754;28;20224;-77
2022/01/19 16:13:37;;;;;;;12.03;10.70;;;7.20;98.70;;;;;;10498705;28;20193;-76
2022/01/19 16:18:40;;;;;;;12.97;11.20;;;7.10;98.80;;;;;;10497875;28;20223;-77
2022/01/19 16:29:01;;;;;;;14.37;12.67;;;7.00;99.20;;;;;;10496188;28;20204;-77
2022/01/19 16:34:07;;;;;;;12.43;11.13;;;6.90;99.30;;;;;;10498122;28;20224;-76
2022/01/19 16:39:12;;;;;;;16.60;11.10;;;6.90;99.40;;;;;;10496161;28;20592;-77
2022/01/19 16:44:16;;;;;;;13.40;11.90;;;6.90;99.40;;;;;;10492536;28;20616;-78
2022/01/19 16:49:27;;;;;;;13.70;12.33;;;7.00;99.20;;;;;;10495479;28;20573;-76
2022/01/19 16:54:30;;;;;;;13.37;11.40;;;6.90;99.40;;;;;;10495668;28;20240;-77
2022/01/19 16:59:32;;;;;;;12.20;11.00;;;6.90;99.90;;;;;;10496489;28;20224;-76
2022/01/19 17:04:36;;;;;;;14.40;11.80;;;6.90;99.90;;;;;;10496107;28;20622;-76
2022/01/19 17:09:38;;;;;;;13.37;10.60;;;7.00;99.90;;;;;;10496183;28;20577;-77
2022/01/19 17:14:42;;;;;;;16.77;11.17;;;7.00;99.50;;;;;;10495605;28;20231;-77
2022/01/19 17:19:45;;;;;;;13.13;11.23;;;7.00;99.70;;;;;;10496028;28;20220;-77
2022/01/19 17:24:47;;;;;;;12.33;10.23;;;7.00;99.90;;;;;;10496786;28;20208;-77
2022/01/19 17:29:49;;;;;;;14.93;10.90;;;7.00;99.90;;;;;;10494707;28;20192;-77
2022/01/19 17:34:56;;;;;;;10.50;9.40;;;7.10;99.90;;;;;;10493588;28;20225;-77
2022/01/19 17:39:59;;;;;;;9.93;8.93;;;7.10;99.90;;;;;;10494608;28;20277;-77
2022/01/19 17:45:05;;;;;;;10.40;9.40;;;7.10;99.90;;;;;;10494988;28;20220;-78
2022/01/19 17:50:16;;;;;;;10.50;9.50;;;7.10;99.90;;;;;;10496284;28;20568;-77
2022/01/19 17:55:23;;;;;;;10.57;9.40;;;7.20;99.90;;;;;;10494446;28;20228;-78
2022/01/19 18:00:26;;;;;;;9.97;8.97;;;7.20;99.90;;;;;;10492932;28;20216;-77
2022/01/19 18:05:30;;;;;;;9.73;8.73;;;7.30;99.90;;;;;;10494459;28;20212;-77
2022/01/19 18:10:32;;;;;;;10.43;8.17;;;7.30;99.90;;;;;;10493851;28;20192;-77
2022/01/19 18:15:34;;;;;;;9.30;8.00;;;7.40;99.90;;;;;;10493487;28;20701;-77
2022/01/19 18:20:40;;;;;;;8.00;7.07;;;7.30;99.90;;;;;;10494435;28;20608;-77
2022/01/19 18:25:42;;;;;;;9.30;8.30;;;7.40;99.90;;;;;;10493337;28;20582;-77
2022/01/19 18:30:44;;;;;;;13.97;8.67;;;7.40;99.90;;;;;;10494097;28;20192;-77
2022/01/19 18:35:47;;;;;;;10.70;9.60;;;7.30;99.90;;;;;;10493151;28;20231;-77
2022/01/19 18:40:49;;;;;;;9.87;8.90;;;7.30;99.90;;;;;;10493884;28;20216;-77
2022/01/19 18:45:51;;;;;;;10.70;9.60;;;7.30;99.90;;;;;;10491942;28;20654;-77
2022/01/19 18:50:55;;;;;;;10.37;9.30;;;7.30;99.90;;;;;;10493620;28;20198;-77
2022/01/19 18:55:58;;;;;;;10.33;9.30;;;7.30;98.90;;;;;;10491776;28;20636;-77
2022/01/19 19:01:03;;;;;;;13.10;9.70;;;7.30;98.90;;;;;;10493719;28;20212;-78
2022/01/19 19:06:06;;;;;;;9.90;8.90;;;7.20;99.90;;;;;;10501082;28;20242;-77
2022/01/19 19:11:21;;;;;;;11.20;9.90;;;7.20;99.80;;;;;;10501353;28;20280;-77
2022/01/19 19:16:23;;;;;;;11.20;9.87;;;7.20;99.90;;;;;;10499878;28;20569;-77
2022/01/19 19:21:26;;;;;;;12.10;10.47;;;7.20;99.90;;;;;;10500472;28;20216;-77
2022/01/19 19:26:28;;;;;;;11.10;10.00;;;7.20;99.90;;;;;;10499607;28;20607;-77
2022/01/19 19:31:31;;;;;;;11.03;9.80;;;7.20;99.90;;;;;;10501746;28;20212;-77
2022/01/19 19:36:34;;;;;;;9.50;8.50;;;7.20;99.90;;;;;;10495255;28;20263;-77
2022/01/19 19:41:39;;;;;;;9.47;8.50;;;7.20;99.90;;;;;;10494061;28;20596;-76
2022/01/19 19:46:43;;;;;;;9.60;8.70;;;7.20;99.90;;;;;;10494066;28;20304;-77
2022/01/19 19:51:47;;;;;;;13.30;9.00;;;7.30;99.90;;;;;;10510719;28;20193;-76
2022/01/19 19:56:49;;;;;;;8.60;7.73;;;7.30;99.90;;;;;;10491044;28;20232;-77
2022/01/19 20:01:52;;;;;;;8.07;7.30;;;7.30;99.90;;;;;;10490598;28;20597;-77
2022/01/19 20:06:55;;;;;;;7.57;6.77;;;7.30;99.90;;;;;;10494866;28;20278;-76
2022/01/19 20:11:57;;;;;;;8.17;6.40;;;7.30;99.90;;;;;;10493610;28;20270;-76
2022/01/19 20:17:01;;;;;;;8.07;7.27;;;7.40;99.90;;;;;;10494148;28;20238;-77
2022/01/19 20:22:05;;;;;;;5.57;5.00;;;7.40;99.90;;;;;;10459740;28;20271;-77
2022/01/19 20:27:08;;;;;;;6.03;5.47;;;7.40;99.90;;;;;;10496130;28;20597;-76
2022/01/19 20:32:10;;;;;;;4.23;3.90;;;7.40;99.90;;;;;;10493564;28;20217;-76
2022/01/19 20:37:14;;;;;;;3.87;3.50;;;7.40;99.80;;;;;;10488743;28;20216;-77
2022/01/19 20:42:16;;;;;;;4.30;3.90;;;7.30;99.50;;;;;;10491105;28;20924;-77
2022/01/19 20:47:19;;;;;;;4.70;3.87;;;7.30;99.20;;;;;;10490050;28;20220;-77
2022/01/19 20:52:22;;;;;;;3.93;3.63;;;7.30;98.50;;;;;;10493216;28;20568;-77
2022/01/19 20:57:24;;;;;;;4.00;3.70;;;7.20;97.80;;;;;;10492295;28;20230;-77
2022/01/19 21:02:26;;;;;;;5.10;4.60;;;7.10;99.10;;;;;;10490122;28;20196;-76
2022/01/19 21:07:30;;;;;;;6.57;5.97;;;7.10;98.80;;;;;;10490467;28;20227;-77
2022/01/19 21:12:34;;;;;;;7.67;6.97;;;7.10;99.40;;;;;;10490952;28;20200;-77
2022/01/19 21:17:38;;;;;;;7.50;6.70;;;7.20;99.40;;;;;;10491905;28;20216;-77
2022/01/19 21:22:42;;;;;;;8.97;7.17;;;7.10;98.70;;;;;;10489245;28;20199;-77
2022/01/19 21:27:46;;;;;;;7.30;6.60;;;7.10;99.00;;;;;;10484552;28;20208;-76
2022/01/19 21:32:50;;;;;;;6.63;6.03;;;7.10;99.70;;;;;;10486897;28;20684;-77
2022/01/19 21:37:53;;;;;;;7.50;6.80;;;7.10;99.90;;;;;;10491715;28;20212;-77
2022/01/19 21:42:56;;;;;;;6.83;6.23;;;7.10;99.90;;;;;;10494982;28;20564;-77
2022/01/19 21:47:58;;;;;;;7.40;6.70;;;7.10;99.90;;;;;;10494349;28;20213;-77
2022/01/19 21:53:01;;;;;;;6.80;6.20;;;7.10;99.90;;;;;;10495470;28;20215;-76
2022/01/19 21:58:03;;;;;;;8.83;6.63;;;7.00;99.90;;;;;;10493896;28;20220;-77
2022/01/19 22:03:05;;;;;;;6.07;5.57;;;7.00;99.90;;;;;;10495545;28;20197;-78
2022/01/19 22:08:12;;;;;;;7.13;6.43;;;7.00;99.90;;;;;;10489465;28;20219;-77
2022/01/19 22:13:15;;;;;;;5.63;5.13;;;6.90;99.90;;;;;;10489433;28;20276;-77
2022/01/19 22:18:17;;;;;;;6.80;6.20;;;6.90;99.90;;;;;;10493619;28;20228;-77
2022/01/19 22:23:20;;;;;;;5.90;5.40;;;7.00;99.90;;;;;;10493607;28;20200;-76
2022/01/19 22:28:22;;;;;;;5.80;5.30;;;6.90;99.90;;;;;;10493705;28;20714;-77
2022/01/19 22:33:24;;;;;;;7.10;6.40;;;6.90;99.90;;;;;;10477965;28;20668;-75
2022/01/19 22:38:27;;;;;;;5.80;5.30;;;6.90;99.90;;;;;;10504940;28;20231;-77
2022/01/19 22:43:29;;;;;;;7.53;6.77;;;6.80;99.90;;;;;;10506074;28;20649;-76
2022/01/19 22:48:31;;;;;;;6.47;5.97;;;6.70;99.90;;;;;;10501171;28;20211;-75
2022/01/19 22:53:35;;;;;;;6.67;6.10;;;6.50;99.90;;;;;;10501658;28;20204;-76
2022/01/19 22:58:37;;;;;;;6.90;6.30;;;6.40;99.90;;;;;;10499406;28;20224;-75
2022/01/19 23:03:39;;;;;;;7.50;6.80;;;6.40;99.90;;;;;;10501817;28;20266;-75
2022/01/19 23:08:43;;;;;;;7.20;6.60;;;6.30;99.90;;;;;;10500491;28;20210;-76
2022/01/19 23:13:48;;;;;;;7.63;6.93;;;6.30;99.90;;;;;;10501072;28;20219;-76
2022/01/19 23:18:50;;;;;;;7.20;6.60;;;6.20;99.90;;;;;;10501007;28;20216;-76
2022/01/19 23:23:54;;;;;;;6.53;5.93;;;6.10;99.90;;;;;;10500972;28;20708;-76
2022/01/19 23:28:56;;;;;;;6.77;6.17;;;6.20;99.90;;;;;;10501244;28;20548;-76
2022/01/19 23:33:59;;;;;;;5.83;5.33;;;6.10;99.90;;;;;;10500526;28;20213;-76
2022/01/19 23:39:13;;;;;;;6.47;5.87;;;6.20;99.90;;;;;;10500361;28;20274;-76
2022/01/19 23:49:34;;;;;;;5.90;5.40;;;6.30;99.90;;;;;;10499474;28;20521;-76
2022/01/19 23:54:38;;;;;;;5.93;5.43;;;6.30;99.90;;;;;;10500106;28;20209;-76
2022/01/19 23:59:50;;;;;;;6.10;5.50;;;6.30;99.90;;;;;;10500187;28;20692;-76
